Montrose, AR (71658)

5:10 AM CDT on May 25, 2015 (GMT -0500)
Lake Hall Rd near Fawnwood Comm Ctr | | Change Station
CLOSE
Current Station
Personal Weather Station
Location: Lake Village, AR
Elevation: 118 ft
Nearby Weather Stations
Active Advisory: Flood Warning

Elev 118 ft 33.28 °N, 91.24 °W | Updated 4 minutes ago

Overcast
Overcast
69.6 °F
Feels Like 69.6 °F
N
0.0
Wind Variable Wind from SSE
Gusts 1.0 mph

Today
High -- | Low -- °F
--% Chance of Precip.
Yesterday
High -- | Low -- °F
Precip. -- in
6:00 AM 8:06 PM
Waxing Crescent, 47% visible
Pressure 30.00 in
Visibility 10.0 miles
Clouds Overcast 800 ft
Dew Point 69 °F
Humidity 97%
Rainfall 0.02 in
Snow Depth Not available.
UV 0 out of 12
Pollen 4.50 out of 12
Air Quality Not available.
Flu Activity No Activity
METAR KLLQ 250953Z AUTO 17008KT 10SM OVC008 21/21 A3001 RMK AO2 CIG 006V011 SLP159 T02110206

More Conditions Fewer Conditions

Pressure 30.00 in
Visibility 10.0 miles
Clouds Overcast 800 ft
Dew Point 69 °F
Humidity 97%
Rainfall 0.02 in
Snow Depth Not available.
UV 0 out of 12
Pollen 4.50 out of 12
Air Quality Not available.
Flu Activity No Activity
METAR KLLQ 250953Z AUTO 17008KT 10SM OVC008 21/21 A3001 RMK AO2 CIG 006V011 SLP159 T02110206

More Conditions Fewer Conditions

10-Day Weather Forecast

Almanac

Astronomy

May. 25, 2015 Rise Set
Actual Time
Civil Twilight
Nautical Twilight
Astronomical Twilight
Moon
Length of Visible Light
Length of Day
Tomorrow will be .
, % of the Moon is Illuminated

Today's Extremes

State Highs State Lows

Community

WunderPhotos

Upload Photos

1,823,972 photos uploaded!

WunderBlogs® & News

Nearby

Air Quality

  Air Quality AQ Index Pollutant
Not available.

Snow Depth

Station Depth Elevation

Earthquake Activity

City Distance Mag. Time & Date
Minimum magnitude displayed is 2.5.

Coastal Water Temperatures

Place Temperature

Stations

Nearby Weather Stations

Station Location Temp. Windchill Dew Point Humidity Wind Precip. Elev Updated Type
                   
Flood Warning
Statement as of 1:45 PM CDT on May 24, 2015

The Flood Warning continues for
the Ouachita River at Felsenthal, Arkansas.
* Until further notice... or until the warning is cancelled.
* At noon Sunday the pool stage was 73.3 feet.
* Minor flooding is occurring and minor flooding is forecast.
* Flood pool stage is 70 feet.
* Forecast... the river will continue rising to near 76.0 feet by
June 8. Additional rises remain possible thereafter.
* Impact... at 75.0 feet... flooding in the Felsenthal National Wildlife
Refuge will continue through mid June.


Lat... Lon 3300 9210 3311 9217 3318 9212 3307 9211 3300 9205